sensor_id;sensor_type;location;lat;lon;timestamp;P1;durP1;ratioP1;P2;durP2;ratioP2
24751;SDS011;27246;52.376;4.628;2023-08-24T00:02:53;7.13;;;5.00;;
24751;SDS011;27246;52.376;4.628;2023-08-24T00:07:55;10.55;;;5.47;;
24751;SDS011;27246;52.376;4.628;2023-08-24T00:12:57;7.22;;;4.68;;
24751;SDS011;27246;52.376;4.628;2023-08-24T00:17:58;6.30;;;3.90;;
24751;SDS011;27246;52.376;4.628;2023-08-24T00:23:00;5.50;;;3.92;;
24751;SDS011;27246;52.376;4.628;2023-08-24T00:28:02;10.25;;;5.65;;
24751;SDS011;27246;52.376;4.628;2023-08-24T00:33:05;6.28;;;4.20;;
24751;SDS011;27246;52.376;4.628;2023-08-24T00:38:07;7.57;;;4.35;;
24751;SDS011;27246;52.376;4.628;2023-08-24T00:43:09;7.65;;;4.68;;
24751;SDS011;27246;52.376;4.628;2023-08-24T00:48:11;7.38;;;4.47;;
24751;SDS011;27246;52.376;4.628;2023-08-24T00:53:13;9.07;;;4.85;;
24751;SDS011;27246;52.376;4.628;2023-08-24T00:58:15;8.32;;;4.68;;
24751;SDS011;27246;52.376;4.628;2023-08-24T01:03:18;6.70;;;4.68;;
24751;SDS011;27246;52.376;4.628;2023-08-24T01:08:20;6.70;;;4.40;;
24751;SDS011;27246;52.376;4.628;2023-08-24T01:13:27;6.40;;;4.30;;
24751;SDS011;27246;52.376;4.628;2023-08-24T01:18:49;4.10;;;3.75;;
24751;SDS011;27246;52.376;4.628;2023-08-24T01:29:11;4.97;;;3.50;;
24751;SDS011;27246;52.376;4.628;2023-08-24T01:34:13;6.85;;;3.63;;
24751;SDS011;27246;52.376;4.628;2023-08-24T01:39:28;3.25;;;2.30;;
24751;SDS011;27246;52.376;4.628;2023-08-24T01:44:36;4.28;;;2.60;;
24751;SDS011;27246;52.376;4.628;2023-08-24T01:49:41;4.40;;;2.85;;
24751;SDS011;27246;52.376;4.628;2023-08-24T01:54:43;7.20;;;2.10;;
24751;SDS011;27246;52.376;4.628;2023-08-24T01:59:45;3.53;;;2.25;;
24751;SDS011;27246;52.376;4.628;2023-08-24T02:04:48;4.18;;;2.40;;
24751;SDS011;27246;52.376;4.628;2023-08-24T02:09:51;4.32;;;2.17;;
24751;SDS011;27246;52.376;4.628;2023-08-24T02:14:53;4.13;;;2.35;;
24751;SDS011;27246;52.376;4.628;2023-08-24T02:19:55;3.42;;;2.78;;
24751;SDS011;27246;52.376;4.628;2023-08-24T02:24:57;4.45;;;2.75;;
24751;SDS011;27246;52.376;4.628;2023-08-24T02:29:58;4.93;;;3.08;;
24751;SDS011;27246;52.376;4.628;2023-08-24T02:35:00;5.45;;;2.63;;
24751;SDS011;27246;52.376;4.628;2023-08-24T02:40:04;3.65;;;2.95;;
24751;SDS011;27246;52.376;4.628;2023-08-24T02:45:07;4.20;;;2.70;;
24751;SDS011;27246;52.376;4.628;2023-08-24T02:50:12;6.40;;;2.95;;
24751;SDS011;27246;52.376;4.628;2023-08-24T02:55:14;6.40;;;2.97;;
24751;SDS011;27246;52.376;4.628;2023-08-24T03:00:16;6.68;;;3.30;;
24751;SDS011;27246;52.376;4.628;2023-08-24T03:05:18;5.40;;;3.40;;
24751;SDS011;27246;52.376;4.628;2023-08-24T03:10:20;5.07;;;3.40;;
24751;SDS011;27246;52.376;4.628;2023-08-24T03:15:22;5.18;;;3.78;;
24751;SDS011;27246;52.376;4.628;2023-08-24T03:20:24;4.45;;;3.58;;
24751;SDS011;27246;52.376;4.628;2023-08-24T03:25:26;7.18;;;4.57;;
24751;SDS011;27246;52.376;4.628;2023-08-24T03:30:28;5.53;;;3.70;;
24751;SDS011;27246;52.376;4.628;2023-08-24T03:35:31;5.82;;;4.03;;
24751;SDS011;27246;52.376;4.628;2023-08-24T03:40:33;5.10;;;4.03;;
24751;SDS011;27246;52.376;4.628;2023-08-24T03:45:36;5.70;;;4.22;;
24751;SDS011;27246;52.376;4.628;2023-08-24T03:50:39;5.80;;;4.43;;
24751;SDS011;27246;52.376;4.628;2023-08-24T03:55:41;6.95;;;4.00;;
24751;SDS011;27246;52.376;4.628;2023-08-24T04:00:44;6.20;;;4.00;;
24751;SDS011;27246;52.376;4.628;2023-08-24T04:05:46;5.40;;;4.07;;
24751;SDS011;27246;52.376;4.628;2023-08-24T04:10:47;5.80;;;4.40;;
24751;SDS011;27246;52.376;4.628;2023-08-24T04:15:49;6.80;;;4.70;;
24751;SDS011;27246;52.376;4.628;2023-08-24T04:20:52;6.45;;;4.68;;
24751;SDS011;27246;52.376;4.628;2023-08-24T04:25:54;4.63;;;4.22;;
24751;SDS011;27246;52.376;4.628;2023-08-24T04:30:56;5.70;;;4.82;;
24751;SDS011;27246;52.376;4.628;2023-08-24T04:35:58;6.38;;;4.90;;
24751;SDS011;27246;52.376;4.628;2023-08-24T04:41:00;6.90;;;5.38;;
24751;SDS011;27246;52.376;4.628;2023-08-24T04:46:02;8.98;;;5.53;;
24751;SDS011;27246;52.376;4.628;2023-08-24T04:51:04;7.90;;;6.00;;
24751;SDS011;27246;52.376;4.628;2023-08-24T04:56:06;6.75;;;6.10;;
24751;SDS011;27246;52.376;4.628;2023-08-24T05:01:07;9.50;;;6.28;;
24751;SDS011;27246;52.376;4.628;2023-08-24T05:06:12;7.60;;;6.50;;
24751;SDS011;27246;52.376;4.628;2023-08-24T05:11:17;7.57;;;6.63;;
24751;SDS011;27246;52.376;4.628;2023-08-24T05:16:20;8.57;;;7.28;;
24751;SDS011;27246;52.376;4.628;2023-08-24T05:21:22;8.38;;;6.88;;
24751;SDS011;27246;52.376;4.628;2023-08-24T05:26:24;9.18;;;7.40;;
24751;SDS011;27246;52.376;4.628;2023-08-24T05:31:25;11.23;;;8.57;;
24751;SDS011;27246;52.376;4.628;2023-08-24T05:36:27;9.40;;;7.55;;
24751;SDS011;27246;52.376;4.628;2023-08-24T05:41:29;8.75;;;7.72;;
24751;SDS011;27246;52.376;4.628;2023-08-24T05:46:31;10.00;;;7.80;;
24751;SDS011;27246;52.376;4.628;2023-08-24T05:51:32;9.55;;;8.20;;
24751;SDS011;27246;52.376;4.628;2023-08-24T05:56:34;11.45;;;8.75;;
24751;SDS011;27246;52.376;4.628;2023-08-24T06:01:36;8.95;;;8.05;;
24751;SDS011;27246;52.376;4.628;2023-08-24T06:06:43;9.93;;;8.57;;
24751;SDS011;27246;52.376;4.628;2023-08-24T06:11:45;11.43;;;9.02;;
24751;SDS011;27246;52.376;4.628;2023-08-24T06:16:46;12.40;;;8.38;;
24751;SDS011;27246;52.376;4.628;2023-08-24T06:21:50;12.32;;;7.97;;
24751;SDS011;27246;52.376;4.628;2023-08-24T06:26:51;9.32;;;7.32;;
24751;SDS011;27246;52.376;4.628;2023-08-24T06:31:53;10.38;;;7.97;;
24751;SDS011;27246;52.376;4.628;2023-08-24T06:36:55;12.02;;;7.53;;
24751;SDS011;27246;52.376;4.628;2023-08-24T06:41:57;9.45;;;7.15;;
24751;SDS011;27246;52.376;4.628;2023-08-24T06:47:00;8.63;;;7.57;;
24751;SDS011;27246;52.376;4.628;2023-08-24T06:52:05;9.13;;;7.72;;
24751;SDS011;27246;52.376;4.628;2023-08-24T06:57:07;11.75;;;7.90;;
24751;SDS011;27246;52.376;4.628;2023-08-24T07:02:10;12.20;;;8.15;;
24751;SDS011;27246;52.376;4.628;2023-08-24T07:07:12;10.88;;;7.63;;
24751;SDS011;27246;52.376;4.628;2023-08-24T07:12:14;10.88;;;7.88;;
24751;SDS011;27246;52.376;4.628;2023-08-24T07:17:16;11.15;;;7.72;;
24751;SDS011;27246;52.376;4.628;2023-08-24T07:22:17;11.65;;;7.85;;
24751;SDS011;27246;52.376;4.628;2023-08-24T07:27:20;11.05;;;7.32;;
24751;SDS011;27246;52.376;4.628;2023-08-24T07:32:22;10.40;;;7.85;;
24751;SDS011;27246;52.376;4.628;2023-08-24T07:37:27;11.10;;;8.00;;
24751;SDS011;27246;52.376;4.628;2023-08-24T07:42:28;12.13;;;8.70;;
24751;SDS011;27246;52.376;4.628;2023-08-24T07:47:30;10.45;;;8.65;;
24751;SDS011;27246;52.376;4.628;2023-08-24T07:52:32;10.45;;;8.32;;
24751;SDS011;27246;52.376;4.628;2023-08-24T07:57:34;13.38;;;9.45;;
24751;SDS011;27246;52.376;4.628;2023-08-24T08:02:36;16.27;;;10.45;;
24751;SDS011;27246;52.376;4.628;2023-08-24T08:07:39;16.08;;;10.77;;
24751;SDS011;27246;52.376;4.628;2023-08-24T08:12:41;13.75;;;10.82;;
24751;SDS011;27246;52.376;4.628;2023-08-24T08:17:43;15.13;;;11.80;;
24751;SDS011;27246;52.376;4.628;2023-08-24T08:22:45;15.25;;;11.52;;
24751;SDS011;27246;52.376;4.628;2023-08-24T08:27:46;14.98;;;11.68;;
24751;SDS011;27246;52.376;4.628;2023-08-24T08:32:48;13.73;;;10.98;;
24751;SDS011;27246;52.376;4.628;2023-08-24T08:37:52;13.15;;;11.40;;
24751;SDS011;27246;52.376;4.628;2023-08-24T08:42:55;13.13;;;10.77;;
24751;SDS011;27246;52.376;4.628;2023-08-24T08:47:59;11.52;;;10.35;;
24751;SDS011;27246;52.376;4.628;2023-08-24T08:53:02;15.10;;;10.98;;
24751;SDS011;27246;52.376;4.628;2023-08-24T08:58:04;14.32;;;10.23;;
24751;SDS011;27246;52.376;4.628;2023-08-24T09:03:07;14.52;;;12.07;;
24751;SDS011;27246;52.376;4.628;2023-08-24T09:08:12;18.02;;;13.75;;
24751;SDS011;27246;52.376;4.628;2023-08-24T09:13:16;16.63;;;12.30;;
24751;SDS011;27246;52.376;4.628;2023-08-24T09:18:19;14.55;;;12.38;;
24751;SDS011;27246;52.376;4.628;2023-08-24T09:23:21;17.42;;;13.10;;
24751;SDS011;27246;52.376;4.628;2023-08-24T09:28:23;17.13;;;13.27;;
24751;SDS011;27246;52.376;4.628;2023-08-24T09:33:28;16.63;;;12.02;;
24751;SDS011;27246;52.376;4.628;2023-08-24T09:38:31;17.75;;;10.55;;
24751;SDS011;27246;52.376;4.628;2023-08-24T09:43:33;12.45;;;11.15;;
24751;SDS011;27246;52.376;4.628;2023-08-24T09:48:35;15.88;;;11.30;;
24751;SDS011;27246;52.376;4.628;2023-08-24T09:53:37;16.83;;;11.10;;
24751;SDS011;27246;52.376;4.628;2023-08-24T09:58:42;14.55;;;11.57;;
24751;SDS011;27246;52.376;4.628;2023-08-24T10:03:46;12.13;;;10.55;;
24751;SDS011;27246;52.376;4.628;2023-08-24T10:08:54;18.58;;;12.63;;
24751;SDS011;27246;52.376;4.628;2023-08-24T10:14:02;18.60;;;12.38;;
24751;SDS011;27246;52.376;4.628;2023-08-24T10:19:10;21.57;;;14.87;;
24751;SDS011;27246;52.376;4.628;2023-08-24T10:24:13;19.48;;;14.38;;
24751;SDS011;27246;52.376;4.628;2023-08-24T10:29:17;10.82;;;9.32;;
24751;SDS011;27246;52.376;4.628;2023-08-24T10:34:19;14.40;;;11.48;;
24751;SDS011;27246;52.376;4.628;2023-08-24T10:39:27;11.32;;;9.50;;
24751;SDS011;27246;52.376;4.628;2023-08-24T10:44:34;15.60;;;11.45;;
24751;SDS011;27246;52.376;4.628;2023-08-24T10:49:43;16.02;;;10.95;;
24751;SDS011;27246;52.376;4.628;2023-08-24T10:54:46;18.48;;;12.88;;
24751;SDS011;27246;52.376;4.628;2023-08-24T11:05:29;12.65;;;10.75;;
24751;SDS011;27246;52.376;4.628;2023-08-24T11:15:47;11.90;;;10.77;;
24751;SDS011;27246;52.376;4.628;2023-08-24T11:20:59;12.88;;;9.85;;
24751;SDS011;27246;52.376;4.628;2023-08-24T11:26:03;11.70;;;10.55;;
24751;SDS011;27246;52.376;4.628;2023-08-24T11:31:05;12.93;;;11.13;;
24751;SDS011;27246;52.376;4.628;2023-08-24T11:36:10;11.95;;;10.45;;
24751;SDS011;27246;52.376;4.628;2023-08-24T11:41:14;11.93;;;9.77;;
24751;SDS011;27246;52.376;4.628;2023-08-24T11:46:17;9.32;;;8.32;;
24751;SDS011;27246;52.376;4.628;2023-08-24T11:51:20;11.88;;;9.30;;
24751;SDS011;27246;52.376;4.628;2023-08-24T11:56:42;10.88;;;9.70;;
24751;SDS011;27246;52.376;4.628;2023-08-24T12:01:44;14.00;;;10.52;;
24751;SDS011;27246;52.376;4.628;2023-08-24T12:06:48;13.40;;;11.38;;
24751;SDS011;27246;52.376;4.628;2023-08-24T12:11:55;12.13;;;10.23;;
24751;SDS011;27246;52.376;4.628;2023-08-24T12:17:05;12.38;;;11.18;;
24751;SDS011;27246;52.376;4.628;2023-08-24T12:22:12;10.80;;;9.65;;
24751;SDS011;27246;52.376;4.628;2023-08-24T12:27:21;11.35;;;10.32;;
24751;SDS011;27246;52.376;4.628;2023-08-24T12:32:24;10.48;;;8.90;;
24751;SDS011;27246;52.376;4.628;2023-08-24T12:37:28;10.48;;;9.25;;
24751;SDS011;27246;52.376;4.628;2023-08-24T12:42:30;13.13;;;10.05;;
24751;SDS011;27246;52.376;4.628;2023-08-24T12:47:32;9.90;;;8.32;;
24751;SDS011;27246;52.376;4.628;2023-08-24T12:52:37;11.05;;;10.02;;
24751;SDS011;27246;52.376;4.628;2023-08-24T12:57:39;9.82;;;8.73;;
24751;SDS011;27246;52.376;4.628;2023-08-24T13:02:44;11.23;;;10.27;;
24751;SDS011;27246;52.376;4.628;2023-08-24T13:07:46;15.75;;;14.30;;
24751;SDS011;27246;52.376;4.628;2023-08-24T13:12:47;13.75;;;12.27;;
24751;SDS011;27246;52.376;4.628;2023-08-24T13:17:49;13.48;;;12.18;;
24751;SDS011;27246;52.376;4.628;2023-08-24T13:22:54;16.17;;;11.93;;
24751;SDS011;27246;52.376;4.628;2023-08-24T13:27:56;12.18;;;10.68;;
24751;SDS011;27246;52.376;4.628;2023-08-24T13:32:58;14.75;;;10.98;;
24751;SDS011;27246;52.376;4.628;2023-08-24T13:37:59;9.75;;;7.35;;
24751;SDS011;27246;52.376;4.628;2023-08-24T13:43:01;10.23;;;6.95;;
24751;SDS011;27246;52.376;4.628;2023-08-24T13:48:03;9.15;;;6.85;;
24751;SDS011;27246;52.376;4.628;2023-08-24T13:53:08;8.18;;;6.55;;
24751;SDS011;27246;52.376;4.628;2023-08-24T13:58:14;7.13;;;6.40;;
24751;SDS011;27246;52.376;4.628;2023-08-24T14:03:16;9.32;;;7.45;;
24751;SDS011;27246;52.376;4.628;2023-08-24T14:08:18;11.10;;;10.07;;
24751;SDS011;27246;52.376;4.628;2023-08-24T14:13:22;13.45;;;12.15;;
24751;SDS011;27246;52.376;4.628;2023-08-24T14:18:26;16.80;;;14.25;;
24751;SDS011;27246;52.376;4.628;2023-08-24T14:23:29;17.48;;;15.63;;
24751;SDS011;27246;52.376;4.628;2023-08-24T14:28:47;18.92;;;16.50;;
24751;SDS011;27246;52.376;4.628;2023-08-24T14:38:52;24.45;;;21.90;;
24751;SDS011;27246;52.376;4.628;2023-08-24T14:43:54;25.17;;;20.10;;
24751;SDS011;27246;52.376;4.628;2023-08-24T14:48:56;22.92;;;19.70;;
24751;SDS011;27246;52.376;4.628;2023-08-24T14:53:58;23.88;;;19.13;;
24751;SDS011;27246;52.376;4.628;2023-08-24T14:58:59;20.92;;;18.63;;
24751;SDS011;27246;52.376;4.628;2023-08-24T15:04:01;20.15;;;18.05;;
24751;SDS011;27246;52.376;4.628;2023-08-24T15:09:03;22.15;;;17.75;;
24751;SDS011;27246;52.376;4.628;2023-08-24T15:14:05;21.60;;;18.95;;
24751;SDS011;27246;52.376;4.628;2023-08-24T15:19:07;23.40;;;20.23;;
24751;SDS011;27246;52.376;4.628;2023-08-24T15:24:08;20.67;;;18.67;;
24751;SDS011;27246;52.376;4.628;2023-08-24T15:29:14;21.42;;;19.23;;
24751;SDS011;27246;52.376;4.628;2023-08-24T15:34:18;18.57;;;16.67;;
24751;SDS011;27246;52.376;4.628;2023-08-24T15:39:20;18.88;;;16.45;;
24751;SDS011;27246;52.376;4.628;2023-08-24T15:44:22;18.80;;;16.90;;
24751;SDS011;27246;52.376;4.628;2023-08-24T15:49:24;20.85;;;17.52;;
24751;SDS011;27246;52.376;4.628;2023-08-24T15:54:26;19.70;;;17.60;;
24751;SDS011;27246;52.376;4.628;2023-08-24T15:59:28;19.58;;;17.23;;
24751;SDS011;27246;52.376;4.628;2023-08-24T16:04:29;18.90;;;15.90;;
24751;SDS011;27246;52.376;4.628;2023-08-24T16:09:31;18.70;;;16.73;;
24751;SDS011;27246;52.376;4.628;2023-08-24T16:14:33;21.27;;;17.00;;
24751;SDS011;27246;52.376;4.628;2023-08-24T16:19:35;21.00;;;16.80;;
24751;SDS011;27246;52.376;4.628;2023-08-24T16:24:37;18.58;;;16.70;;
24751;SDS011;27246;52.376;4.628;2023-08-24T16:29:39;17.27;;;15.00;;
24751;SDS011;27246;52.376;4.628;2023-08-24T16:34:42;16.52;;;14.90;;
24751;SDS011;27246;52.376;4.628;2023-08-24T16:39:44;17.17;;;15.43;;
24751;SDS011;27246;52.376;4.628;2023-08-24T16:44:46;19.23;;;17.13;;
24751;SDS011;27246;52.376;4.628;2023-08-24T16:49:48;20.48;;;18.38;;
24751;SDS011;27246;52.376;4.628;2023-08-24T16:54:49;24.88;;;20.67;;
24751;SDS011;27246;52.376;4.628;2023-08-24T16:59:51;23.02;;;20.45;;
24751;SDS011;27246;52.376;4.628;2023-08-24T17:04:53;23.77;;;21.38;;
24751;SDS011;27246;52.376;4.628;2023-08-24T17:09:55;25.17;;;22.67;;
24751;SDS011;27246;52.376;4.628;2023-08-24T17:14:57;23.20;;;20.92;;
24751;SDS011;27246;52.376;4.628;2023-08-24T17:19:58;23.88;;;21.42;;
24751;SDS011;27246;52.376;4.628;2023-08-24T17:25:01;23.25;;;20.73;;
24751;SDS011;27246;52.376;4.628;2023-08-24T17:30:06;23.95;;;21.35;;
24751;SDS011;27246;52.376;4.628;2023-08-24T17:35:08;23.00;;;20.40;;
24751;SDS011;27246;52.376;4.628;2023-08-24T17:40:10;24.80;;;20.08;;
24751;SDS011;27246;52.376;4.628;2023-08-24T17:45:14;21.10;;;18.08;;
24751;SDS011;27246;52.376;4.628;2023-08-24T17:50:17;21.65;;;19.42;;
24751;SDS011;27246;52.376;4.628;2023-08-24T17:55:19;18.58;;;16.58;;
24751;SDS011;27246;52.376;4.628;2023-08-24T18:00:21;20.35;;;18.25;;
24751;SDS011;27246;52.376;4.628;2023-08-24T18:05:22;18.50;;;16.50;;
24751;SDS011;27246;52.376;4.628;2023-08-24T18:10:24;13.05;;;11.13;;
24751;SDS011;27246;52.376;4.628;2023-08-24T18:15:32;9.23;;;7.72;;
24751;SDS011;27246;52.376;4.628;2023-08-24T18:20:34;7.30;;;6.60;;
24751;SDS011;27246;52.376;4.628;2023-08-24T18:25:38;7.50;;;6.30;;
24751;SDS011;27246;52.376;4.628;2023-08-24T18:30:41;9.18;;;6.07;;
24751;SDS011;27246;52.376;4.628;2023-08-24T18:35:43;7.75;;;6.38;;
24751;SDS011;27246;52.376;4.628;2023-08-24T18:40:44;8.32;;;6.15;;
24751;SDS011;27246;52.376;4.628;2023-08-24T18:45:57;7.32;;;5.55;;
24751;SDS011;27246;52.376;4.628;2023-08-24T18:56:02;6.20;;;4.40;;
24751;SDS011;27246;52.376;4.628;2023-08-24T19:01:03;6.95;;;5.30;;
24751;SDS011;27246;52.376;4.628;2023-08-24T19:06:06;6.32;;;5.40;;
24751;SDS011;27246;52.376;4.628;2023-08-24T19:11:25;6.00;;;5.13;;
24751;SDS011;27246;52.376;4.628;2023-08-24T19:16:27;6.32;;;5.72;;
24751;SDS011;27246;52.376;4.628;2023-08-24T19:21:29;6.55;;;5.75;;
24751;SDS011;27246;52.376;4.628;2023-08-24T19:26:31;8.27;;;5.85;;
24751;SDS011;27246;52.376;4.628;2023-08-24T19:31:35;10.02;;;8.05;;
24751;SDS011;27246;52.376;4.628;2023-08-24T19:36:37;8.88;;;7.00;;
24751;SDS011;27246;52.376;4.628;2023-08-24T19:41:44;10.32;;;6.72;;
24751;SDS011;27246;52.376;4.628;2023-08-24T19:47:00;10.73;;;7.97;;
24751;SDS011;27246;52.376;4.628;2023-08-24T19:52:01;7.68;;;6.82;;
24751;SDS011;27246;52.376;4.628;2023-08-24T19:57:04;8.82;;;6.75;;
24751;SDS011;27246;52.376;4.628;2023-08-24T20:02:07;7.65;;;6.95;;
24751;SDS011;27246;52.376;4.628;2023-08-24T20:07:09;9.60;;;7.00;;
24751;SDS011;27246;52.376;4.628;2023-08-24T20:12:10;6.47;;;5.88;;
24751;SDS011;27246;52.376;4.628;2023-08-24T20:17:12;8.82;;;7.20;;
24751;SDS011;27246;52.376;4.628;2023-08-24T20:22:15;8.02;;;7.22;;
24751;SDS011;27246;52.376;4.628;2023-08-24T20:27:17;8.38;;;7.57;;
24751;SDS011;27246;52.376;4.628;2023-08-24T20:32:19;9.05;;;7.60;;
24751;SDS011;27246;52.376;4.628;2023-08-24T20:37:20;11.15;;;8.05;;
24751;SDS011;27246;52.376;4.628;2023-08-24T20:42:22;9.43;;;8.50;;
24751;SDS011;27246;52.376;4.628;2023-08-24T20:47:26;10.20;;;8.52;;
24751;SDS011;27246;52.376;4.628;2023-08-24T20:52:28;11.73;;;9.55;;
24751;SDS011;27246;52.376;4.628;2023-08-24T20:57:30;11.02;;;9.63;;
24751;SDS011;27246;52.376;4.628;2023-08-24T21:02:32;12.90;;;10.68;;
24751;SDS011;27246;52.376;4.628;2023-08-24T21:07:34;11.13;;;9.65;;
24751;SDS011;27246;52.376;4.628;2023-08-24T21:12:37;10.30;;;9.25;;
24751;SDS011;27246;52.376;4.628;2023-08-24T21:17:38;10.55;;;9.45;;
24751;SDS011;27246;52.376;4.628;2023-08-24T21:22:42;9.82;;;8.90;;
24751;SDS011;27246;52.376;4.628;2023-08-24T21:27:44;10.80;;;9.68;;
24751;SDS011;27246;52.376;4.628;2023-08-24T21:32:46;12.25;;;10.45;;
24751;SDS011;27246;52.376;4.628;2023-08-24T21:37:47;14.43;;;11.00;;
24751;SDS011;27246;52.376;4.628;2023-08-24T21:42:49;13.63;;;12.10;;
24751;SDS011;27246;52.376;4.628;2023-08-24T21:47:51;15.25;;;13.68;;
24751;SDS011;27246;52.376;4.628;2023-08-24T21:52:55;15.68;;;13.98;;
24751;SDS011;27246;52.376;4.628;2023-08-24T21:57:56;18.00;;;15.60;;
24751;SDS011;27246;52.376;4.628;2023-08-24T22:02:58;18.17;;;16.30;;
24751;SDS011;27246;52.376;4.628;2023-08-24T22:08:00;20.02;;;15.38;;
24751;SDS011;27246;52.376;4.628;2023-08-24T22:13:06;17.17;;;14.90;;
24751;SDS011;27246;52.376;4.628;2023-08-24T22:18:08;20.95;;;15.55;;
24751;SDS011;27246;52.376;4.628;2023-08-24T22:23:12;16.63;;;11.90;;
24751;SDS011;27246;52.376;4.628;2023-08-24T22:28:14;16.38;;;13.27;;
24751;SDS011;27246;52.376;4.628;2023-08-24T22:33:16;16.08;;;11.90;;
24751;SDS011;27246;52.376;4.628;2023-08-24T22:38:17;14.05;;;11.77;;
24751;SDS011;27246;52.376;4.628;2023-08-24T22:43:19;13.98;;;11.63;;
24751;SDS011;27246;52.376;4.628;2023-08-24T22:48:21;12.00;;;10.18;;
24751;SDS011;27246;52.376;4.628;2023-08-24T22:53:22;12.35;;;10.82;;
24751;SDS011;27246;52.376;4.628;2023-08-24T22:58:24;13.02;;;9.80;;
24751;SDS011;27246;52.376;4.628;2023-08-24T23:03:26;14.02;;;10.98;;
24751;SDS011;27246;52.376;4.628;2023-08-24T23:08:28;13.50;;;9.70;;
24751;SDS011;27246;52.376;4.628;2023-08-24T23:13:30;13.00;;;9.88;;
24751;SDS011;27246;52.376;4.628;2023-08-24T23:18:31;12.32;;;9.68;;
24751;SDS011;27246;52.376;4.628;2023-08-24T23:23:33;11.98;;;10.23;;
24751;SDS011;27246;52.376;4.628;2023-08-24T23:28:35;12.13;;;9.68;;
24751;SDS011;27246;52.376;4.628;2023-08-24T23:33:37;13.43;;;9.02;;
24751;SDS011;27246;52.376;4.628;2023-08-24T23:38:39;10.82;;;9.07;;
24751;SDS011;27246;52.376;4.628;2023-08-24T23:43:43;11.23;;;8.80;;
24751;SDS011;27246;52.376;4.628;2023-08-24T23:48:45;12.07;;;8.35;;
24751;SDS011;27246;52.376;4.628;2023-08-24T23:53:49;13.68;;;9.05;;
24751;SDS011;27246;52.376;4.628;2023-08-24T23:58:51;11.10;;;8.13;;
